sensor_id;sensor_type;location;lat;lon;timestamp;P1;durP1;ratioP1;P2;durP2;ratioP2
15996;SDS011;8103;51.340;12.326;2023-10-09T00:01:43;5.32;;;3.08;;
15996;SDS011;8103;51.340;12.326;2023-10-09T00:04:10;6.60;;;3.17;;
15996;SDS011;8103;51.340;12.326;2023-10-09T00:06:38;3.53;;;2.80;;
15996;SDS011;8103;51.340;12.326;2023-10-09T00:09:05;4.13;;;2.75;;
15996;SDS011;8103;51.340;12.326;2023-10-09T00:11:51;5.13;;;2.47;;
15996;SDS011;8103;51.340;12.326;2023-10-09T00:14:26;4.35;;;2.53;;
15996;SDS011;8103;51.340;12.326;2023-10-09T00:16:56;3.88;;;2.25;;
15996;SDS011;8103;51.340;12.326;2023-10-09T00:19:38;5.47;;;2.83;;
15996;SDS011;8103;51.340;12.326;2023-10-09T00:22:05;3.35;;;2.20;;
15996;SDS011;8103;51.340;12.326;2023-10-09T00:24:50;4.30;;;2.78;;
15996;SDS011;8103;51.340;12.326;2023-10-09T00:27:40;3.85;;;2.83;;
15996;SDS011;8103;51.340;12.326;2023-10-09T00:30:12;4.15;;;2.92;;
15996;SDS011;8103;51.340;12.326;2023-10-09T00:32:44;3.22;;;2.38;;
15996;SDS011;8103;51.340;12.326;2023-10-09T00:35:31;4.85;;;2.78;;
15996;SDS011;8103;51.340;12.326;2023-10-09T00:38:23;3.92;;;2.75;;
15996;SDS011;8103;51.340;12.326;2023-10-09T00:40:58;4.75;;;2.80;;
15996;SDS011;8103;51.340;12.326;2023-10-09T00:43:34;3.80;;;3.10;;
15996;SDS011;8103;51.340;12.326;2023-10-09T00:46:03;4.07;;;2.88;;
15996;SDS011;8103;51.340;12.326;2023-10-09T00:48:59;4.25;;;3.13;;
15996;SDS011;8103;51.340;12.326;2023-10-09T00:51:28;4.03;;;3.63;;
15996;SDS011;8103;51.340;12.326;2023-10-09T00:54:02;6.15;;;3.53;;
15996;SDS011;8103;51.340;12.326;2023-10-09T00:56:40;4.78;;;2.97;;
15996;SDS011;8103;51.340;12.326;2023-10-09T00:59:13;5.90;;;4.05;;
15996;SDS011;8103;51.340;12.326;2023-10-09T01:01:43;5.05;;;3.65;;
15996;SDS011;8103;51.340;12.326;2023-10-09T01:04:23;9.68;;;3.67;;
15996;SDS011;8103;51.340;12.326;2023-10-09T01:06:52;3.97;;;3.20;;
15996;SDS011;8103;51.340;12.326;2023-10-09T01:09:34;5.63;;;4.15;;
15996;SDS011;8103;51.340;12.326;2023-10-09T01:12:05;6.68;;;4.13;;
15996;SDS011;8103;51.340;12.326;2023-10-09T01:14:32;5.68;;;4.20;;
15996;SDS011;8103;51.340;12.326;2023-10-09T01:17:03;4.63;;;2.78;;
15996;SDS011;8103;51.340;12.326;2023-10-09T01:19:44;4.03;;;3.00;;
15996;SDS011;8103;51.340;12.326;2023-10-09T01:22:11;4.07;;;3.67;;
15996;SDS011;8103;51.340;12.326;2023-10-09T01:24:42;4.82;;;3.22;;
15996;SDS011;8103;51.340;12.326;2023-10-09T01:27:09;4.68;;;3.30;;
15996;SDS011;8103;51.340;12.326;2023-10-09T01:29:42;3.85;;;3.08;;
15996;SDS011;8103;51.340;12.326;2023-10-09T01:32:10;4.72;;;3.05;;
15996;SDS011;8103;51.340;12.326;2023-10-09T01:34:46;5.40;;;2.70;;
15996;SDS011;8103;51.340;12.326;2023-10-09T01:37:17;3.63;;;3.08;;
15996;SDS011;8103;51.340;12.326;2023-10-09T01:39:45;3.47;;;2.95;;
15996;SDS011;8103;51.340;12.326;2023-10-09T01:42:14;3.55;;;3.17;;
15996;SDS011;8103;51.340;12.326;2023-10-09T01:44:51;3.55;;;3.25;;
15996;SDS011;8103;51.340;12.326;2023-10-09T01:47:18;2.97;;;2.63;;
15996;SDS011;8103;51.340;12.326;2023-10-09T01:49:48;3.78;;;3.28;;
15996;SDS011;8103;51.340;12.326;2023-10-09T01:52:16;4.53;;;3.30;;
15996;SDS011;8103;51.340;12.326;2023-10-09T01:54:43;3.55;;;3.22;;
15996;SDS011;8103;51.340;12.326;2023-10-09T01:57:15;5.50;;;3.45;;
15996;SDS011;8103;51.340;12.326;2023-10-09T01:59:48;5.72;;;3.42;;
15996;SDS011;8103;51.340;12.326;2023-10-09T02:02:16;5.55;;;3.30;;
15996;SDS011;8103;51.340;12.326;2023-10-09T02:04:53;2.92;;;2.60;;
15996;SDS011;8103;51.340;12.326;2023-10-09T02:07:31;5.43;;;3.55;;
15996;SDS011;8103;51.340;12.326;2023-10-09T02:10:07;3.10;;;2.80;;
15996;SDS011;8103;51.340;12.326;2023-10-09T02:12:47;4.72;;;3.13;;
15996;SDS011;8103;51.340;12.326;2023-10-09T02:15:27;3.50;;;3.20;;
15996;SDS011;8103;51.340;12.326;2023-10-09T02:18:07;4.28;;;3.58;;
15996;SDS011;8103;51.340;12.326;2023-10-09T02:20:46;4.15;;;3.17;;
15996;SDS011;8103;51.340;12.326;2023-10-09T02:23:30;4.32;;;3.80;;
15996;SDS011;8103;51.340;12.326;2023-10-09T02:26:11;4.78;;;3.33;;
15996;SDS011;8103;51.340;12.326;2023-10-09T02:29:06;3.35;;;2.88;;
15996;SDS011;8103;51.340;12.326;2023-10-09T02:31:46;5.55;;;3.33;;
15996;SDS011;8103;51.340;12.326;2023-10-09T02:34:17;3.95;;;3.28;;
15996;SDS011;8103;51.340;12.326;2023-10-09T02:36:48;4.55;;;3.13;;
15996;SDS011;8103;51.340;12.326;2023-10-09T02:39:15;3.85;;;3.20;;
15996;SDS011;8103;51.340;12.326;2023-10-09T02:42:09;4.07;;;3.33;;
15996;SDS011;8103;51.340;12.326;2023-10-09T02:44:39;4.95;;;3.72;;
15996;SDS011;8103;51.340;12.326;2023-10-09T02:47:12;5.35;;;3.58;;
15996;SDS011;8103;51.340;12.326;2023-10-09T02:49:50;5.20;;;3.75;;
15996;SDS011;8103;51.340;12.326;2023-10-09T02:52:17;3.88;;;3.28;;
15996;SDS011;8103;51.340;12.326;2023-10-09T02:54:45;4.75;;;2.85;;
15996;SDS011;8103;51.340;12.326;2023-10-09T02:57:18;4.45;;;3.50;;
15996;SDS011;8103;51.340;12.326;2023-10-09T02:59:49;5.95;;;3.75;;
15996;SDS011;8103;51.340;12.326;2023-10-09T03:02:18;5.90;;;3.88;;
15996;SDS011;8103;51.340;12.326;2023-10-09T03:04:45;5.82;;;3.55;;
15996;SDS011;8103;51.340;12.326;2023-10-09T03:07:13;4.57;;;3.17;;
15996;SDS011;8103;51.340;12.326;2023-10-09T03:09:40;4.38;;;3.15;;
15996;SDS011;8103;51.340;12.326;2023-10-09T03:12:07;3.92;;;3.53;;
15996;SDS011;8103;51.340;12.326;2023-10-09T03:14:40;3.58;;;3.00;;
15996;SDS011;8103;51.340;12.326;2023-10-09T03:17:10;5.65;;;3.30;;
15996;SDS011;8103;51.340;12.326;2023-10-09T03:19:40;4.00;;;3.50;;
15996;SDS011;8103;51.340;12.326;2023-10-09T03:22:07;4.80;;;3.17;;
15996;SDS011;8103;51.340;12.326;2023-10-09T03:24:37;5.45;;;3.38;;
15996;SDS011;8103;51.340;12.326;2023-10-09T03:27:04;5.65;;;4.43;;
15996;SDS011;8103;51.340;12.326;2023-10-09T03:29:31;4.10;;;3.72;;
15996;SDS011;8103;51.340;12.326;2023-10-09T03:31:59;3.88;;;3.50;;
15996;SDS011;8103;51.340;12.326;2023-10-09T03:34:26;6.00;;;4.28;;
15996;SDS011;8103;51.340;12.326;2023-10-09T03:36:54;3.92;;;3.55;;
15996;SDS011;8103;51.340;12.326;2023-10-09T03:39:30;3.65;;;3.22;;
15996;SDS011;8103;51.340;12.326;2023-10-09T03:42:05;3.40;;;3.10;;
15996;SDS011;8103;51.340;12.326;2023-10-09T03:44:32;3.90;;;3.28;;
15996;SDS011;8103;51.340;12.326;2023-10-09T03:47:00;6.00;;;3.13;;
15996;SDS011;8103;51.340;12.326;2023-10-09T03:49:28;5.13;;;3.10;;
15996;SDS011;8103;51.340;12.326;2023-10-09T03:51:55;4.43;;;3.20;;
15996;SDS011;8103;51.340;12.326;2023-10-09T03:54:22;4.65;;;3.83;;
15996;SDS011;8103;51.340;12.326;2023-10-09T03:56:50;5.22;;;4.18;;
15996;SDS011;8103;51.340;12.326;2023-10-09T03:59:18;4.38;;;3.58;;
15996;SDS011;8103;51.340;12.326;2023-10-09T04:01:48;4.93;;;3.45;;
15996;SDS011;8103;51.340;12.326;2023-10-09T04:04:17;5.28;;;3.70;;
15996;SDS011;8103;51.340;12.326;2023-10-09T04:06:44;8.60;;;4.13;;
15996;SDS011;8103;51.340;12.326;2023-10-09T04:09:12;4.15;;;3.63;;
15996;SDS011;8103;51.340;12.326;2023-10-09T04:11:45;4.82;;;4.32;;
15996;SDS011;8103;51.340;12.326;2023-10-09T04:14:13;5.35;;;3.53;;
15996;SDS011;8103;51.340;12.326;2023-10-09T04:16:59;5.03;;;3.55;;
15996;SDS011;8103;51.340;12.326;2023-10-09T04:19:52;5.95;;;3.80;;
15996;SDS011;8103;51.340;12.326;2023-10-09T04:22:38;4.88;;;3.45;;
15996;SDS011;8103;51.340;12.326;2023-10-09T04:25:08;5.97;;;3.80;;
15996;SDS011;8103;51.340;12.326;2023-10-09T04:27:41;4.70;;;3.80;;
15996;SDS011;8103;51.340;12.326;2023-10-09T04:30:08;4.93;;;3.67;;
15996;SDS011;8103;51.340;12.326;2023-10-09T04:32:41;5.15;;;3.88;;
15996;SDS011;8103;51.340;12.326;2023-10-09T04:35:11;5.28;;;3.80;;
15996;SDS011;8103;51.340;12.326;2023-10-09T04:37:50;5.35;;;4.55;;
15996;SDS011;8103;51.340;12.326;2023-10-09T04:40:31;4.32;;;3.65;;
15996;SDS011;8103;51.340;12.326;2023-10-09T04:43:07;5.03;;;3.33;;
15996;SDS011;8103;51.340;12.326;2023-10-09T04:45:38;3.95;;;3.10;;
15996;SDS011;8103;51.340;12.326;2023-10-09T04:48:24;4.05;;;3.42;;
15996;SDS011;8103;51.340;12.326;2023-10-09T04:51:04;7.43;;;4.10;;
15996;SDS011;8103;51.340;12.326;2023-10-09T04:53:48;6.35;;;4.00;;
15996;SDS011;8103;51.340;12.326;2023-10-09T04:56:33;4.30;;;3.83;;
15996;SDS011;8103;51.340;12.326;2023-10-09T04:59:18;4.47;;;4.07;;
15996;SDS011;8103;51.340;12.326;2023-10-09T05:01:45;6.43;;;4.20;;
15996;SDS011;8103;51.340;12.326;2023-10-09T05:04:24;5.07;;;4.35;;
15996;SDS011;8103;51.340;12.326;2023-10-09T05:07:03;6.32;;;4.55;;
15996;SDS011;8103;51.340;12.326;2023-10-09T05:09:49;5.40;;;4.90;;
15996;SDS011;8103;51.340;12.326;2023-10-09T05:12:23;6.72;;;5.45;;
15996;SDS011;8103;51.340;12.326;2023-10-09T05:14:55;5.95;;;4.53;;
15996;SDS011;8103;51.340;12.326;2023-10-09T05:17:40;4.60;;;3.67;;
15996;SDS011;8103;51.340;12.326;2023-10-09T05:20:18;4.78;;;4.28;;
15996;SDS011;8103;51.340;12.326;2023-10-09T05:22:53;5.13;;;4.53;;
15996;SDS011;8103;51.340;12.326;2023-10-09T05:25:24;5.78;;;4.40;;
15996;SDS011;8103;51.340;12.326;2023-10-09T05:28:12;5.57;;;3.55;;
15996;SDS011;8103;51.340;12.326;2023-10-09T05:30:51;6.28;;;4.30;;
15996;SDS011;8103;51.340;12.326;2023-10-09T05:33:33;5.18;;;4.38;;
15996;SDS011;8103;51.340;12.326;2023-10-09T05:36:04;5.75;;;4.63;;
15996;SDS011;8103;51.340;12.326;2023-10-09T05:38:52;7.22;;;5.75;;
15996;SDS011;8103;51.340;12.326;2023-10-09T05:41:25;8.48;;;4.55;;
15996;SDS011;8103;51.340;12.326;2023-10-09T05:44:19;4.85;;;4.18;;
15996;SDS011;8103;51.340;12.326;2023-10-09T05:47:04;6.63;;;4.78;;
15996;SDS011;8103;51.340;12.326;2023-10-09T05:49:50;6.72;;;4.25;;
15996;SDS011;8103;51.340;12.326;2023-10-09T05:52:35;9.88;;;5.05;;
15996;SDS011;8103;51.340;12.326;2023-10-09T05:55:05;4.40;;;3.80;;
15996;SDS011;8103;51.340;12.326;2023-10-09T05:57:50;6.10;;;4.90;;
15996;SDS011;8103;51.340;12.326;2023-10-09T06:00:36;6.97;;;4.40;;
15996;SDS011;8103;51.340;12.326;2023-10-09T06:03:21;8.57;;;4.57;;
15996;SDS011;8103;51.340;12.326;2023-10-09T06:06:15;8.02;;;4.95;;
15996;SDS011;8103;51.340;12.326;2023-10-09T06:09:00;7.45;;;5.78;;
15996;SDS011;8103;51.340;12.326;2023-10-09T06:11:43;8.15;;;5.97;;
15996;SDS011;8103;51.340;12.326;2023-10-09T06:14:23;7.78;;;4.80;;
15996;SDS011;8103;51.340;12.326;2023-10-09T06:16:56;6.10;;;4.82;;
15996;SDS011;8103;51.340;12.326;2023-10-09T06:19:41;8.48;;;5.00;;
15996;SDS011;8103;51.340;12.326;2023-10-09T06:22:11;5.38;;;4.50;;
15996;SDS011;8103;51.340;12.326;2023-10-09T06:24:38;5.57;;;4.60;;
15996;SDS011;8103;51.340;12.326;2023-10-09T06:27:21;7.47;;;5.07;;
15996;SDS011;8103;51.340;12.326;2023-10-09T06:29:57;9.32;;;5.60;;
15996;SDS011;8103;51.340;12.326;2023-10-09T06:32:43;7.35;;;5.18;;
15996;SDS011;8103;51.340;12.326;2023-10-09T06:35:29;6.53;;;5.57;;
15996;SDS011;8103;51.340;12.326;2023-10-09T06:37:59;7.95;;;5.85;;
15996;SDS011;8103;51.340;12.326;2023-10-09T06:40:30;7.90;;;5.25;;
15996;SDS011;8103;51.340;12.326;2023-10-09T06:43:18;11.43;;;6.13;;
15996;SDS011;8103;51.340;12.326;2023-10-09T06:45:50;8.82;;;5.72;;
15996;SDS011;8103;51.340;12.326;2023-10-09T06:48:21;9.77;;;6.53;;
15996;SDS011;8103;51.340;12.326;2023-10-09T06:51:04;11.20;;;6.30;;
15996;SDS011;8103;51.340;12.326;2023-10-09T06:53:51;9.27;;;5.63;;
15996;SDS011;8103;51.340;12.326;2023-10-09T06:59:01;10.02;;;6.15;;
15996;SDS011;8103;51.340;12.326;2023-10-09T07:01:50;9.95;;;6.82;;
15996;SDS011;8103;51.340;12.326;2023-10-09T07:04:38;9.63;;;5.93;;
15996;SDS011;8103;51.340;12.326;2023-10-09T07:07:04;7.88;;;5.65;;
15996;SDS011;8103;51.340;12.326;2023-10-09T07:09:39;13.57;;;7.15;;
15996;SDS011;8103;51.340;12.326;2023-10-09T07:12:09;10.63;;;6.80;;
15996;SDS011;8103;51.340;12.326;2023-10-09T07:14:39;11.65;;;6.70;;
15996;SDS011;8103;51.340;12.326;2023-10-09T07:17:07;13.07;;;6.57;;
15996;SDS011;8103;51.340;12.326;2023-10-09T07:19:55;7.30;;;5.82;;
15996;SDS011;8103;51.340;12.326;2023-10-09T07:22:22;9.40;;;6.38;;
15996;SDS011;8103;51.340;12.326;2023-10-09T07:24:52;10.27;;;7.05;;
15996;SDS011;8103;51.340;12.326;2023-10-09T07:27:40;11.65;;;7.32;;
15996;SDS011;8103;51.340;12.326;2023-10-09T07:30:12;11.13;;;6.85;;
15996;SDS011;8103;51.340;12.326;2023-10-09T07:33:02;10.88;;;6.85;;
15996;SDS011;8103;51.340;12.326;2023-10-09T07:35:42;12.82;;;7.45;;
15996;SDS011;8103;51.340;12.326;2023-10-09T07:38:15;11.82;;;8.15;;
15996;SDS011;8103;51.340;12.326;2023-10-09T07:40:47;13.75;;;7.93;;
15996;SDS011;8103;51.340;12.326;2023-10-09T07:43:32;11.80;;;8.32;;
15996;SDS011;8103;51.340;12.326;2023-10-09T07:46:11;13.50;;;8.45;;
15996;SDS011;8103;51.340;12.326;2023-10-09T07:48:59;13.20;;;8.43;;
15996;SDS011;8103;51.340;12.326;2023-10-09T07:51:36;16.40;;;9.20;;
15996;SDS011;8103;51.340;12.326;2023-10-09T07:54:04;14.75;;;8.25;;
15996;SDS011;8103;51.340;12.326;2023-10-09T07:56:34;11.32;;;9.13;;
15996;SDS011;8103;51.340;12.326;2023-10-09T07:59:07;9.80;;;8.38;;
15996;SDS011;8103;51.340;12.326;2023-10-09T08:01:40;15.27;;;8.10;;
15996;SDS011;8103;51.340;12.326;2023-10-09T08:04:29;15.70;;;9.43;;
15996;SDS011;8103;51.340;12.326;2023-10-09T08:07:15;14.20;;;8.63;;
15996;SDS011;8103;51.340;12.326;2023-10-09T08:10:06;11.57;;;9.25;;
15996;SDS011;8103;51.340;12.326;2023-10-09T08:12:40;12.38;;;8.60;;
15996;SDS011;8103;51.340;12.326;2023-10-09T08:15:11;10.07;;;7.40;;
15996;SDS011;8103;51.340;12.326;2023-10-09T08:17:56;10.48;;;7.47;;
15996;SDS011;8103;51.340;12.326;2023-10-09T08:20:36;11.85;;;7.47;;
15996;SDS011;8103;51.340;12.326;2023-10-09T08:23:36;11.50;;;7.18;;
15996;SDS011;8103;51.340;12.326;2023-10-09T08:26:15;15.82;;;9.45;;
15996;SDS011;8103;51.340;12.326;2023-10-09T08:28:55;12.18;;;8.32;;
15996;SDS011;8103;51.340;12.326;2023-10-09T08:31:43;13.25;;;8.77;;
15996;SDS011;8103;51.340;12.326;2023-10-09T08:34:13;11.43;;;7.82;;
15996;SDS011;8103;51.340;12.326;2023-10-09T08:36:54;13.40;;;8.23;;
15996;SDS011;8103;51.340;12.326;2023-10-09T08:39:21;12.63;;;7.57;;
15996;SDS011;8103;51.340;12.326;2023-10-09T08:42:02;14.30;;;8.73;;
15996;SDS011;8103;51.340;12.326;2023-10-09T08:44:34;22.15;;;12.50;;
15996;SDS011;8103;51.340;12.326;2023-10-09T08:47:05;19.77;;;11.43;;
15996;SDS011;8103;51.340;12.326;2023-10-09T08:49:33;17.73;;;10.45;;
15996;SDS011;8103;51.340;12.326;2023-10-09T08:52:02;11.65;;;8.98;;
15996;SDS011;8103;51.340;12.326;2023-10-09T08:54:30;14.05;;;8.98;;
15996;SDS011;8103;51.340;12.326;2023-10-09T08:56:59;11.70;;;8.18;;
15996;SDS011;8103;51.340;12.326;2023-10-09T08:59:27;13.73;;;8.45;;
15996;SDS011;8103;51.340;12.326;2023-10-09T09:01:54;16.08;;;8.90;;
15996;SDS011;8103;51.340;12.326;2023-10-09T09:04:33;15.18;;;9.00;;
15996;SDS011;8103;51.340;12.326;2023-10-09T09:07:28;13.55;;;9.50;;
15996;SDS011;8103;51.340;12.326;2023-10-09T09:09:58;13.02;;;8.60;;
15996;SDS011;8103;51.340;12.326;2023-10-09T09:12:44;12.32;;;8.50;;
15996;SDS011;8103;51.340;12.326;2023-10-09T09:15:13;12.27;;;8.70;;
15996;SDS011;8103;51.340;12.326;2023-10-09T09:17:47;15.02;;;9.73;;
15996;SDS011;8103;51.340;12.326;2023-10-09T09:20:22;11.45;;;8.10;;
15996;SDS011;8103;51.340;12.326;2023-10-09T09:22:54;16.25;;;8.05;;
15996;SDS011;8103;51.340;12.326;2023-10-09T09:25:28;10.05;;;8.13;;
15996;SDS011;8103;51.340;12.326;2023-10-09T09:28:12;13.65;;;9.07;;
15996;SDS011;8103;51.340;12.326;2023-10-09T09:30:40;18.27;;;10.13;;
15996;SDS011;8103;51.340;12.326;2023-10-09T09:33:17;17.00;;;9.32;;
15996;SDS011;8103;51.340;12.326;2023-10-09T09:35:56;14.63;;;8.85;;
15996;SDS011;8103;51.340;12.326;2023-10-09T09:38:27;12.85;;;8.68;;
15996;SDS011;8103;51.340;12.326;2023-10-09T09:40:56;11.32;;;8.00;;
15996;SDS011;8103;51.340;12.326;2023-10-09T09:43:23;15.55;;;8.57;;
15996;SDS011;8103;51.340;12.326;2023-10-09T09:45:52;10.43;;;7.38;;
15996;SDS011;8103;51.340;12.326;2023-10-09T09:48:23;12.35;;;7.90;;
15996;SDS011;8103;51.340;12.326;2023-10-09T09:50:52;8.63;;;7.40;;
15996;SDS011;8103;51.340;12.326;2023-10-09T09:53:20;12.73;;;8.27;;
15996;SDS011;8103;51.340;12.326;2023-10-09T09:55:54;13.30;;;9.02;;
15996;SDS011;8103;51.340;12.326;2023-10-09T09:58:25;12.48;;;9.10;;
15996;SDS011;8103;51.340;12.326;2023-10-09T10:01:09;13.27;;;8.30;;
15996;SDS011;8103;51.340;12.326;2023-10-09T10:04:05;13.05;;;7.85;;
15996;SDS011;8103;51.340;12.326;2023-10-09T10:06:40;12.75;;;8.68;;
15996;SDS011;8103;51.340;12.326;2023-10-09T10:09:33;9.93;;;7.47;;
15996;SDS011;8103;51.340;12.326;2023-10-09T10:12:08;14.48;;;8.63;;
15996;SDS011;8103;51.340;12.326;2023-10-09T10:14:55;13.90;;;7.82;;
15996;SDS011;8103;51.340;12.326;2023-10-09T10:21:09;11.60;;;6.95;;
15996;SDS011;8103;51.340;12.326;2023-10-09T10:23:44;9.65;;;6.88;;
15996;SDS011;8103;51.340;12.326;2023-10-09T10:26:17;11.52;;;7.10;;
15996;SDS011;8103;51.340;12.326;2023-10-09T10:37:37;9.77;;;7.03;;
15996;SDS011;8103;51.340;12.326;2023-10-09T10:40:10;10.80;;;7.40;;
15996;SDS011;8103;51.340;12.326;2023-10-09T10:42:46;12.43;;;8.27;;
15996;SDS011;8103;51.340;12.326;2023-10-09T10:45:34;10.20;;;7.22;;
15996;SDS011;8103;51.340;12.326;2023-10-09T10:48:10;23.52;;;8.45;;
15996;SDS011;8103;51.340;12.326;2023-10-09T10:51:04;10.95;;;7.70;;
15996;SDS011;8103;51.340;12.326;2023-10-09T10:53:31;8.90;;;6.75;;
15996;SDS011;8103;51.340;12.326;2023-10-09T10:56:13;9.90;;;6.78;;
15996;SDS011;8103;51.340;12.326;2023-10-09T10:58:41;10.80;;;6.80;;
15996;SDS011;8103;51.340;12.326;2023-10-09T11:01:20;9.60;;;6.75;;
15996;SDS011;8103;51.340;12.326;2023-10-09T11:03:52;9.25;;;7.03;;
15996;SDS011;8103;51.340;12.326;2023-10-09T11:06:25;7.00;;;5.60;;
15996;SDS011;8103;51.340;12.326;2023-10-09T11:09:05;7.60;;;6.20;;
15996;SDS011;8103;51.340;12.326;2023-10-09T11:11:50;7.35;;;5.82;;
15996;SDS011;8103;51.340;12.326;2023-10-09T11:14:47;7.97;;;6.55;;
15996;SDS011;8103;51.340;12.326;2023-10-09T11:17:35;6.78;;;5.90;;
15996;SDS011;8103;51.340;12.326;2023-10-09T11:20:03;8.43;;;6.60;;
15996;SDS011;8103;51.340;12.326;2023-10-09T11:22:51;6.68;;;4.65;;
15996;SDS011;8103;51.340;12.326;2023-10-09T11:25:46;5.70;;;5.10;;
15996;SDS011;8103;51.340;12.326;2023-10-09T11:28:17;8.13;;;5.72;;
15996;SDS011;8103;51.340;12.326;2023-10-09T11:31:11;13.82;;;8.18;;
15996;SDS011;8103;51.340;12.326;2023-10-09T11:33:45;11.25;;;7.78;;
15996;SDS011;8103;51.340;12.326;2023-10-09T11:36:15;10.20;;;6.68;;
15996;SDS011;8103;51.340;12.326;2023-10-09T11:38:42;9.43;;;7.40;;
15996;SDS011;8103;51.340;12.326;2023-10-09T11:41:12;8.18;;;6.05;;
15996;SDS011;8103;51.340;12.326;2023-10-09T11:43:49;9.10;;;5.65;;
15996;SDS011;8103;51.340;12.326;2023-10-09T11:46:18;8.10;;;5.95;;
15996;SDS011;8103;51.340;12.326;2023-10-09T11:49:05;6.18;;;5.18;;
15996;SDS011;8103;51.340;12.326;2023-10-09T11:51:52;6.30;;;5.47;;
15996;SDS011;8103;51.340;12.326;2023-10-09T11:54:37;7.18;;;5.55;;
15996;SDS011;8103;51.340;12.326;2023-10-09T11:57:04;5.47;;;4.97;;
15996;SDS011;8103;51.340;12.326;2023-10-09T11:59:31;9.38;;;6.80;;
15996;SDS011;8103;51.340;12.326;2023-10-09T12:02:04;9.68;;;7.25;;
15996;SDS011;8103;51.340;12.326;2023-10-09T12:04:31;9.10;;;6.40;;
15996;SDS011;8103;51.340;12.326;2023-10-09T12:06:58;10.60;;;7.68;;
15996;SDS011;8103;51.340;12.326;2023-10-09T12:09:38;10.75;;;8.13;;
15996;SDS011;8103;51.340;12.326;2023-10-09T12:12:06;12.57;;;8.68;;
15996;SDS011;8103;51.340;12.326;2023-10-09T12:14:35;12.23;;;7.40;;
15996;SDS011;8103;51.340;12.326;2023-10-09T12:17:04;8.63;;;7.07;;
15996;SDS011;8103;51.340;12.326;2023-10-09T12:19:32;8.68;;;6.97;;
15996;SDS011;8103;51.340;12.326;2023-10-09T12:22:09;11.90;;;7.95;;
15996;SDS011;8103;51.340;12.326;2023-10-09T12:24:42;13.73;;;9.25;;
15996;SDS011;8103;51.340;12.326;2023-10-09T12:27:09;11.02;;;8.23;;
15996;SDS011;8103;51.340;12.326;2023-10-09T12:29:37;12.82;;;9.20;;
15996;SDS011;8103;51.340;12.326;2023-10-09T12:32:04;10.40;;;8.32;;
15996;SDS011;8103;51.340;12.326;2023-10-09T12:34:37;11.88;;;8.68;;
15996;SDS011;8103;51.340;12.326;2023-10-09T12:37:04;11.43;;;8.27;;
15996;SDS011;8103;51.340;12.326;2023-10-09T12:39:32;11.40;;;8.07;;
15996;SDS011;8103;51.340;12.326;2023-10-09T12:42:06;12.45;;;9.07;;
15996;SDS011;8103;51.340;12.326;2023-10-09T12:44:35;13.30;;;9.38;;
15996;SDS011;8103;51.340;12.326;2023-10-09T12:47:08;11.27;;;8.68;;
15996;SDS011;8103;51.340;12.326;2023-10-09T12:49:38;12.07;;;9.10;;
15996;SDS011;8103;51.340;12.326;2023-10-09T12:52:08;10.95;;;9.02;;
15996;SDS011;8103;51.340;12.326;2023-10-09T12:54:43;11.05;;;8.63;;
15996;SDS011;8103;51.340;12.326;2023-10-09T12:57:12;9.98;;;8.32;;
15996;SDS011;8103;51.340;12.326;2023-10-09T12:59:42;10.50;;;8.20;;
15996;SDS011;8103;51.340;12.326;2023-10-09T13:02:14;12.35;;;8.73;;
15996;SDS011;8103;51.340;12.326;2023-10-09T13:04:55;12.43;;;8.05;;
15996;SDS011;8103;51.340;12.326;2023-10-09T13:07:23;13.25;;;7.70;;
15996;SDS011;8103;51.340;12.326;2023-10-09T13:09:50;11.13;;;7.70;;
15996;SDS011;8103;51.340;12.326;2023-10-09T13:12:41;12.88;;;8.30;;
15996;SDS011;8103;51.340;12.326;2023-10-09T13:15:11;10.30;;;7.93;;
15996;SDS011;8103;51.340;12.326;2023-10-09T13:17:38;13.25;;;8.10;;
15996;SDS011;8103;51.340;12.326;2023-10-09T13:20:05;12.52;;;7.95;;
15996;SDS011;8103;51.340;12.326;2023-10-09T13:22:39;13.65;;;8.70;;
15996;SDS011;8103;51.340;12.326;2023-10-09T13:25:12;10.95;;;7.20;;
15996;SDS011;8103;51.340;12.326;2023-10-09T13:27:56;12.50;;;8.10;;
15996;SDS011;8103;51.340;12.326;2023-10-09T13:30:23;10.55;;;7.75;;
15996;SDS011;8103;51.340;12.326;2023-10-09T13:32:50;15.30;;;9.75;;
15996;SDS011;8103;51.340;12.326;2023-10-09T13:35:17;10.90;;;8.80;;
15996;SDS011;8103;51.340;12.326;2023-10-09T13:37:45;11.80;;;8.05;;
15996;SDS011;8103;51.340;12.326;2023-10-09T13:40:20;11.43;;;7.63;;
15996;SDS011;8103;51.340;12.326;2023-10-09T13:42:54;10.07;;;7.70;;
15996;SDS011;8103;51.340;12.326;2023-10-09T13:45:27;9.57;;;8.02;;
15996;SDS011;8103;51.340;12.326;2023-10-09T13:47:55;13.13;;;8.55;;
15996;SDS011;8103;51.340;12.326;2023-10-09T13:50:25;15.10;;;10.02;;
15996;SDS011;8103;51.340;12.326;2023-10-09T13:52:59;10.77;;;8.63;;
15996;SDS011;8103;51.340;12.326;2023-10-09T13:55:26;14.43;;;10.35;;
15996;SDS011;8103;51.340;12.326;2023-10-09T13:58:09;13.35;;;8.35;;
15996;SDS011;8103;51.340;12.326;2023-10-09T14:00:46;16.25;;;10.95;;
15996;SDS011;8103;51.340;12.326;2023-10-09T14:03:16;18.17;;;11.13;;
15996;SDS011;8103;51.340;12.326;2023-10-09T14:05:49;12.45;;;8.55;;
15996;SDS011;8103;51.340;12.326;2023-10-09T14:08:25;14.40;;;10.13;;
15996;SDS011;8103;51.340;12.326;2023-10-09T14:10:55;15.55;;;9.88;;
15996;SDS011;8103;51.340;12.326;2023-10-09T14:13:21;14.00;;;11.23;;
15996;SDS011;8103;51.340;12.326;2023-10-09T14:15:54;12.18;;;9.50;;
15996;SDS011;8103;51.340;12.326;2023-10-09T14:18:22;10.95;;;9.73;;
15996;SDS011;8103;51.340;12.326;2023-10-09T14:20:50;11.23;;;9.18;;
15996;SDS011;8103;51.340;12.326;2023-10-09T14:23:22;12.45;;;8.57;;
15996;SDS011;8103;51.340;12.326;2023-10-09T14:25:50;13.88;;;10.55;;
15996;SDS011;8103;51.340;12.326;2023-10-09T14:28:20;16.27;;;12.13;;
15996;SDS011;8103;51.340;12.326;2023-10-09T14:30:47;21.65;;;17.15;;
15996;SDS011;8103;51.340;12.326;2023-10-09T14:33:20;18.00;;;13.18;;
15996;SDS011;8103;51.340;12.326;2023-10-09T14:35:49;14.02;;;11.35;;
15996;SDS011;8103;51.340;12.326;2023-10-09T14:38:18;16.67;;;11.27;;
15996;SDS011;8103;51.340;12.326;2023-10-09T14:40:52;16.58;;;10.35;;
15996;SDS011;8103;51.340;12.326;2023-10-09T14:43:26;15.68;;;11.68;;
15996;SDS011;8103;51.340;12.326;2023-10-09T14:45:59;14.15;;;10.57;;
15996;SDS011;8103;51.340;12.326;2023-10-09T14:48:26;12.10;;;9.48;;
15996;SDS011;8103;51.340;12.326;2023-10-09T14:50:53;20.25;;;12.02;;
15996;SDS011;8103;51.340;12.326;2023-10-09T14:53:20;15.65;;;12.00;;
15996;SDS011;8103;51.340;12.326;2023-10-09T14:55:54;16.73;;;10.93;;
15996;SDS011;8103;51.340;12.326;2023-10-09T14:58:27;13.60;;;10.38;;
15996;SDS011;8103;51.340;12.326;2023-10-09T15:00:56;13.43;;;10.63;;
15996;SDS011;8103;51.340;12.326;2023-10-09T15:03:23;17.17;;;10.85;;
15996;SDS011;8103;51.340;12.326;2023-10-09T15:05:50;14.82;;;10.43;;
15996;SDS011;8103;51.340;12.326;2023-10-09T15:08:16;14.27;;;9.52;;
15996;SDS011;8103;51.340;12.326;2023-10-09T15:10:47;16.08;;;11.52;;
15996;SDS011;8103;51.340;12.326;2023-10-09T15:13:15;14.65;;;9.70;;
15996;SDS011;8103;51.340;12.326;2023-10-09T15:15:45;13.27;;;9.00;;
15996;SDS011;8103;51.340;12.326;2023-10-09T15:18:12;17.23;;;10.40;;
15996;SDS011;8103;51.340;12.326;2023-10-09T15:20:39;12.63;;;9.35;;
15996;SDS011;8103;51.340;12.326;2023-10-09T15:23:07;15.70;;;10.50;;
15996;SDS011;8103;51.340;12.326;2023-10-09T15:25:35;16.83;;;11.50;;
15996;SDS011;8103;51.340;12.326;2023-10-09T15:28:06;19.63;;;12.05;;
15996;SDS011;8103;51.340;12.326;2023-10-09T15:30:33;15.02;;;10.95;;
15996;SDS011;8103;51.340;12.326;2023-10-09T15:33:00;15.65;;;11.43;;
15996;SDS011;8103;51.340;12.326;2023-10-09T15:35:27;17.25;;;11.05;;
15996;SDS011;8103;51.340;12.326;2023-10-09T15:38:03;20.55;;;11.80;;
15996;SDS011;8103;51.340;12.326;2023-10-09T15:40:30;16.60;;;10.50;;